Airport ID:K65S
Update Time (UTC):12 DEC 19 07:33
Wind Speed (Knots):CALM
Wind Direction (Magnetic):
Temperature (°C):0
Dew Point (°C):-1
Humidity (%):97
Altimeter (inHg):29.89
Density Altitude (Feet):
Visibility (Miles):1.5
Clouds (Hundreds of feet):BKN008 OVC025
Present Weather:LIGHT SNOW
METAR:METAR K65S 120730Z AUTO 00000KT 1 1/2SM -SN BKN006 OVC025 00/M01 A2989 RMK AO2 P0001

The data displayed is for advisory purposes only and is not to be used for flight planning or operations.

This page is not automatically refreshed. Reload the page to see current data.